Time;durP1;ratioP1;P1;durP2;ratioP2;P2;SDS_P1;SDS_P2;PMS_P1;PMS_P2;Temp;Humidity;BMP_temperature;BMP_pressure;BME280_temperature;BME280_humidity;BME280_pressure;Samples;Min_cycle;Max_cycle;Signal;HPM_P1;HPM_P2
2022/11/05 00:19:08;;;;;;;8.93;6.50;;;;;;;14.91;60.81;98442.53;6948669;28;20194;-80
2022/11/05 00:26:10;;;;;;;10.27;6.63;;;;;;;14.22;62.17;98440.81;6947741;28;20677;-80
2022/11/05 00:29:33;;;;;;;11.37;6.70;;;;;;;14.60;61.75;98441.13;6947589;28;20203;-80
2022/11/05 00:33:00;;;;;;;7.37;5.40;;;;;;;14.88;61.00;98460.16;6947775;28;20274;-80
2022/11/05 00:36:22;;;;;;;9.80;6.53;;;;;;;14.87;61.21;98458.50;6947749;28;20292;-80
2022/11/05 00:39:43;;;;;;;7.10;5.27;;;;;;;14.91;60.98;98462.38;6947588;28;20349;-80
2022/11/05 00:46:45;;;;;;;8.43;6.00;;;;;;;14.71;61.39;98453.00;6947369;28;20215;-79
2022/11/05 00:50:06;;;;;;;7.97;5.80;;;;;;;14.76;61.15;98467.50;6947726;28;20297;-80
2022/11/05 00:53:28;;;;;;;18.63;6.27;;;;;;;14.66;61.05;98458.31;6948811;28;20230;-79
2022/11/05 00:56:49;;;;;;;10.50;5.73;;;;;;;14.79;60.95;98479.75;6949179;28;20235;-80
2022/11/05 01:00:12;;;;;;;7.20;5.87;;;;;;;14.88;61.04;98491.91;6947494;28;20320;-80
2022/11/05 01:03:37;;;;;;;7.40;5.43;;;;;;;15.00;60.47;98484.56;6946823;28;20436;-80
2022/11/05 01:06:58;;;;;;;6.83;5.77;;;;;;;14.87;60.69;98499.22;6948035;28;20296;-80
2022/11/05 01:10:20;;;;;;;7.33;6.03;;;;;;;14.35;62.12;98502.13;6946886;28;20225;-80
2022/11/05 01:13:42;;;;;;;9.30;6.00;;;;;;;14.55;62.42;98502.56;6946708;28;20718;-80
2022/11/05 01:17:03;;;;;;;9.50;6.10;;;;;;;14.73;62.05;98499.72;6947028;28;20244;-81
2022/11/05 01:20:26;;;;;;;8.27;6.13;;;;;;;15.00;61.08;98503.56;6946328;28;20365;-81
2022/11/05 01:23:48;;;;;;;9.57;6.43;;;;;;;14.27;62.75;98486.22;6947383;28;20286;-80
2022/11/05 01:27:10;;;;;;;8.37;6.07;;;;;;;14.22;63.38;98518.63;6947263;28;20290;-80
2022/11/05 01:30:31;;;;;;;7.30;5.80;;;;;;;13.95;62.73;98465.88;6946629;28;20635;-80
2022/11/05 01:33:53;;;;;;;6.97;5.43;;;;;;;14.27;62.51;98532.31;6946601;28;20254;-80
2022/11/05 01:37:16;;;;;;;7.73;5.03;;;;;;;14.15;62.42;98504.34;6948108;28;20533;-80
2022/11/05 01:40:42;;;;;;;10.03;5.80;;;;;;;14.65;61.25;98524.50;6946865;28;20292;-80
2022/11/05 01:44:04;;;;;;;7.87;5.50;;;;;;;14.61;62.41;98523.31;6947585;28;20704;-80
2022/11/05 01:47:35;;;;;;;6.47;5.77;;;;;;;14.48;62.35;98505.41;6947516;28;20505;-81
2022/11/05 01:50:59;;;;;;;9.73;5.90;;;;;;;14.66;62.13;98534.28;6947888;28;20197;-81
2022/11/05 01:54:25;;;;;;;8.47;4.87;;;;;;;14.73;61.96;98511.41;6946942;28;20246;-80
2022/11/05 01:57:46;;;;;;;6.33;5.73;;;;;;;14.89;61.87;98526.97;6947224;28;20260;-81
2022/11/05 02:01:08;;;;;;;7.43;5.77;;;;;;;14.93;61.60;98519.16;6948079;28;20785;-80
2022/11/05 02:04:31;;;;;;;7.47;5.17;;;;;;;15.05;61.36;98519.94;6947943;28;20234;-81
2022/11/05 02:07:53;;;;;;;6.80;5.90;;;;;;;14.75;61.39;98524.75;6948852;28;20706;-80
2022/11/05 02:11:17;;;;;;;8.23;6.17;;;;;;;14.95;61.87;98536.03;6948202;28;20255;-80
2022/11/05 02:14:39;;;;;;;6.33;5.37;;;;;;;15.11;61.33;98535.28;6947909;28;20670;-80
2022/11/05 02:18:11;;;;;;;5.80;5.20;;;;;;;15.19;60.94;98533.03;6947852;28;20275;-80
2022/11/05 02:22:08;;;;;;;6.87;5.40;;;;;;;15.04;61.42;98521.84;6948370;28;20302;-81
2022/11/05 02:25:47;;;;;;;5.53;5.03;;;;;;;15.24;60.38;98535.00;6952429;28;20223;-81
2022/11/05 02:29:50;;;;;;;7.73;5.20;;;;;;;15.20;59.94;98540.09;6955922;28;20223;-80
2022/11/05 02:33:23;;;;;;;5.73;4.90;;;;;;;14.94;60.80;98550.66;6922476;28;20286;-80
2022/11/05 02:36:48;;;;;;;5.63;5.00;;;;;;;14.90;61.18;98552.19;6950963;28;20284;-81
2022/11/05 02:40:15;;;;;;;6.60;5.63;;;;;;;14.90;61.63;98550.31;6950491;28;20223;-81
2022/11/05 02:43:47;;;;;;;6.97;5.67;;;;;;;14.59;61.97;98549.88;6951604;28;20296;-81
2022/11/05 02:47:15;;;;;;;6.97;5.47;;;;;;;14.86;61.24;98532.03;6951391;28;20280;-81
2022/11/05 02:50:43;;;;;;;6.60;5.07;;;;;;;14.96;61.88;98553.94;6950616;28;20233;-80
2022/11/05 02:54:09;;;;;;;6.90;6.13;;;;;;;14.74;62.45;98544.81;6951355;28;20261;-80
2022/11/05 02:57:34;;;;;;;7.40;5.87;;;;;;;14.86;62.02;98542.91;6950970;28;20211;-80
2022/11/05 03:00:56;;;;;;;8.27;5.33;;;;;;;14.76;62.51;98556.25;6951050;28;20292;-81
2022/11/05 03:04:20;;;;;;;5.30;4.80;;;;;;;15.09;61.52;98542.81;6951080;28;20205;-80
2022/11/05 03:07:48;;;;;;;9.00;5.10;;;;;;;14.66;62.16;98532.41;6949979;28;20270;-80
2022/11/05 03:11:14;;;;;;;7.83;5.43;;;;;;;15.03;61.60;98552.78;6950392;28;20377;-79
2022/11/05 03:14:40;;;;;;;7.13;5.13;;;;;;;15.13;61.29;98549.44;6950572;28;20204;-80
2022/11/05 03:18:06;;;;;;;6.40;4.97;;;;;;;15.20;61.24;98556.38;6949464;28;20584;-80
2022/11/05 03:21:37;;;;;;;5.40;4.90;;;;;;;15.34;61.01;98560.50;6951150;28;20263;-80
2022/11/05 03:25:02;;;;;;;7.47;4.70;;;;;;;15.25;61.29;98561.94;6951009;28;20551;-80
2022/11/05 03:28:25;;;;;;;6.63;5.40;;;;;;;15.30;60.66;98542.19;6948158;28;20302;-80
2022/11/05 03:31:49;;;;;;;6.53;5.33;;;;;;;15.03;61.42;98568.22;6948621;28;20323;-80
2022/11/05 03:35:15;;;;;;;6.93;5.77;;;;;;;14.91;62.21;98568.25;6948781;28;20315;-80
2022/11/05 03:38:39;;;;;;;5.50;5.00;;;;;;;14.97;61.84;98559.16;6948668;28;20278;-80
2022/11/05 03:42:04;;;;;;;5.83;5.10;;;;;;;15.24;61.47;98586.59;6948915;28;20372;-80
2022/11/05 03:45:28;;;;;;;5.07;4.67;;;;;;;15.24;61.54;98589.31;6949248;28;20290;-80
2022/11/05 03:48:52;;;;;;;6.30;5.03;;;;;;;15.00;61.89;98591.28;6947866;28;20311;-80
2022/11/05 03:52:16;;;;;;;5.83;4.93;;;;;;;14.88;62.18;98595.06;6948954;28;20733;-80
2022/11/05 03:55:42;;;;;;;6.17;5.57;;;;;;;14.58;62.85;98600.59;6948717;28;20293;-80
2022/11/05 03:59:06;;;;;;;6.00;5.40;;;;;;;14.76;62.47;98599.66;6948632;28;20283;-79
2022/11/05 04:02:28;;;;;;;8.33;5.40;;;;;;;14.67;62.59;98592.91;6949745;28;20668;-79
2022/11/05 04:24:09;;;;;;;5.63;4.67;;;;;;;14.71;62.89;98616.66;6950137;28;20297;-80
2022/11/05 04:27:31;;;;;;;6.00;5.23;;;;;;;14.70;63.50;98630.47;6949294;28;20282;-79
2022/11/05 04:30:51;;;;;;;6.33;4.90;;;;;;;14.73;63.18;98635.41;6949069;28;20287;-79
2022/11/05 04:34:15;;;;;;;6.47;5.10;;;;;;;14.76;63.56;98641.19;6949006;28;20729;-80
2022/11/05 04:37:36;;;;;;;6.70;4.87;;;;;;;14.67;63.51;98644.47;6948105;28;20211;-78
2022/11/05 04:41:12;;;;;;;8.00;5.47;;;;;;;14.83;63.04;98635.66;6947944;28;20367;-79
2022/11/05 04:44:33;;;;;;;6.30;5.20;;;;;;;14.83;62.92;98652.78;6949175;28;20230;-80
2022/11/05 04:47:55;;;;;;;7.40;5.37;;;;;;;14.86;62.92;98646.84;6946894;28;20243;-79
2022/11/05 04:51:18;;;;;;;8.60;5.43;;;;;;;14.86;62.82;98655.00;6947940;28;20251;-79
2022/11/05 04:54:39;;;;;;;9.40;5.90;;;;;;;14.62;63.29;98633.53;6946883;28;20203;-80
2022/11/05 04:58:01;;;;;;;9.23;5.17;;;;;;;14.63;63.14;98656.88;6945971;28;20271;-79
2022/11/05 05:01:23;;;;;;;7.70;5.97;;;;;;;14.37;63.90;98668.16;6945862;28;20664;-80
2022/11/05 05:04:45;;;;;;;8.67;6.40;;;;;;;14.48;63.88;98660.03;6966386;28;20552;-79
2022/11/05 05:08:08;;;;;;;7.37;6.07;;;;;;;14.45;63.76;98659.69;6972372;28;20313;-79
2022/11/05 05:11:29;;;;;;;8.77;6.10;;;;;;;14.38;64.29;98667.09;6973481;28;20295;-79
2022/11/05 05:14:51;;;;;;;9.40;6.60;;;;;;;14.49;63.92;98652.72;6975494;28;20303;-79
2022/11/05 05:18:12;;;;;;;7.90;6.73;;;;;;;14.72;63.80;98672.59;6976157;28;20241;-80
2022/11/05 05:21:40;;;;;;;6.40;5.63;;;;;;;14.49;63.93;98677.13;6977444;28;20457;-80
2022/11/05 05:25:03;;;;;;;8.00;6.00;;;;;;;14.68;63.68;98676.81;6973960;28;20196;-80
2022/11/05 05:28:25;;;;;;;7.03;6.00;;;;;;;14.76;63.36;98683.78;6973140;28;20290;-80
2022/11/05 05:31:46;;;;;;;7.70;6.40;;;;;;;14.76;63.71;98681.06;6973475;28;20314;-79
2022/11/05 05:35:09;;;;;;;8.00;6.63;;;;;;;14.24;64.24;98684.63;6973664;28;20294;-80
2022/11/05 05:38:30;;;;;;;9.27;6.47;;;;;;;14.49;64.22;98690.69;6973242;28;20297;-79
2022/11/05 05:41:53;;;;;;;9.17;7.70;;;;;;;14.45;64.21;98693.06;6973975;28;20330;-80
2022/11/05 05:45:14;;;;;;;9.50;7.57;;;;;;;14.44;64.18;98690.56;6973292;28;20230;-79
2022/11/05 05:48:36;;;;;;;9.40;7.47;;;;;;;14.64;64.12;98701.94;6972557;28;20368;-80
2022/11/05 05:51:57;;;;;;;10.07;8.80;;;;;;;14.55;64.04;98693.31;6973558;28;20704;-80
2022/11/05 05:55:19;;;;;;;9.73;8.73;;;;;;;14.77;63.53;98689.00;6973528;28;20301;-79
2022/11/05 05:58:42;;;;;;;10.57;9.00;;;;;;;14.83;63.57;98698.91;6975286;28;20242;-79
2022/11/05 06:02:03;;;;;;;17.23;10.90;;;;;;;14.73;63.64;98695.94;6974350;28;20328;-80
2022/11/05 06:05:25;;;;;;;14.47;11.43;;;;;;;14.72;63.85;98705.16;6977042;28;20356;-80
2022/11/05 06:08:47;;;;;;;17.07;12.40;;;;;;;14.83;63.12;98704.34;6975996;28;20210;-80
2022/11/05 06:12:08;;;;;;;14.73;12.43;;;;;;;14.66;63.76;98716.94;6978104;28;20700;-81
2022/11/05 06:15:32;;;;;;;15.67;12.10;;;;;;;14.52;64.23;98701.09;6972046;28;20221;-81
2022/11/05 06:18:56;;;;;;;18.37;13.83;;;;;;;14.58;64.10;98716.44;6975909;28;20231;-80
2022/11/05 06:22:17;;;;;;;15.40;12.90;;;;;;;14.34;64.51;98714.72;6978114;28;20268;-80
2022/11/05 06:25:39;;;;;;;19.10;14.60;;;;;;;14.42;64.51;98736.09;6978735;28;20351;-79
2022/11/05 06:29:01;;;;;;;18.20;14.03;;;;;;;14.59;64.24;98746.06;6979476;28;20290;-81
2022/11/05 06:32:23;;;;;;;19.87;14.50;;;;;;;14.56;64.27;98751.94;6979311;28;20361;-80
2022/11/05 06:35:45;;;;;;;17.93;13.80;;;;;;;14.20;64.14;98713.25;6978625;28;20244;-81
2022/11/05 06:39:09;;;;;;;18.63;15.17;;;;;;;14.41;64.54;98756.97;6979815;28;20723;-80
2022/11/05 06:42:31;;;;;;;18.20;14.53;;;;;;;14.52;64.27;98764.31;6979732;28;20313;-81
2022/11/05 06:45:52;;;;;;;18.33;14.83;;;;;;;13.96;63.96;98697.91;6977623;28;20268;-81
2022/11/05 06:49:15;;;;;;;20.10;16.27;;;;;;;14.10;64.41;98737.38;6979494;28;20273;-81
2022/11/05 06:52:37;;;;;;;18.53;14.90;;;;;;;14.38;63.67;98791.84;6979227;28;20259;-80
2022/11/05 06:56:02;;;;;;;21.10;15.10;;;;;;;14.62;63.21;98790.91;6979733;28;20237;-81
2022/11/05 06:59:23;;;;;;;20.60;15.03;;;;;;;14.65;63.24;98791.28;6976981;28;20965;-81
2022/11/05 07:02:45;;;;;;;23.30;16.47;;;;;;;14.54;63.79;98797.47;6980296;28;20262;-81
2022/11/05 07:06:08;;;;;;;22.40;16.07;;;;;;;14.42;63.56;98812.03;6980460;28;20748;-83
2022/11/05 07:09:30;;;;;;;19.73;16.03;;;;;;;14.56;63.64;98813.50;6978315;28;20311;-82
2022/11/05 07:12:51;;;;;;;22.70;17.03;;;;;;;14.67;63.17;98820.88;6981008;28;20608;-81
2022/11/05 07:16:13;;;;;;;20.57;16.97;;;;;;;14.74;63.19;98833.28;6982828;28;20295;-83
2022/11/05 07:19:34;;;;;;;24.20;17.20;;;;;;;14.81;63.13;98831.31;6956619;28;20234;-81
2022/11/05 07:23:04;;;;;;;24.00;17.87;;;;;;;14.77;62.73;98813.00;6953249;28;20231;-81
2022/11/05 07:26:25;;;;;;;21.07;16.27;;;;;;;14.78;62.56;98820.09;6950928;28;20238;-82
2022/11/05 07:29:47;;;;;;;25.13;17.87;;;;;;;14.89;62.66;98847.28;6950344;28;20231;-81
2022/11/05 07:33:09;;;;;;;22.63;17.87;;;;;;;14.71;62.61;98838.34;6951436;28;20650;-81
2022/11/05 07:36:30;;;;;;;22.80;17.93;;;;;;;14.88;62.79;98853.78;6959972;28;20232;-82
2022/11/05 07:39:53;;;;;;;24.97;18.03;;;;;;;15.02;62.82;98866.09;6950179;28;20234;-82
2022/11/05 07:43:15;;;;;;;21.47;16.57;;;;;;;14.62;63.17;98862.28;6950315;28;20260;-81
2022/11/05 07:46:36;;;;;;;22.30;16.97;;;;;;;15.00;62.59;98868.22;6955487;28;20660;-82
2022/11/05 07:49:58;;;;;;;21.57;16.87;;;;;;;15.11;62.26;98870.09;6964440;28;20216;-82
2022/11/05 07:53:20;;;;;;;24.30;17.33;;;;;;;15.04;62.49;98855.81;6972283;28;20678;-82
2022/11/05 07:56:43;;;;;;;22.57;17.10;;;;;;;15.05;62.50;98862.88;6950264;28;20215;-80
2022/11/05 08:00:05;;;;;;;24.47;16.70;;;;;;;15.02;61.86;98881.53;6951824;28;20282;-80
2022/11/05 08:03:27;;;;;;;19.73;16.00;;;;;;;14.86;61.71;98882.22;6977805;28;20410;-80
2022/11/05 08:06:48;;;;;;;23.53;16.87;;;;;;;14.87;61.76;98884.66;6960435;28;20738;-81
2022/11/05 08:10:10;;;;;;;22.30;16.57;;;;;;;14.53;63.16;98879.94;6949442;28;20214;-80
2022/11/05 08:13:33;;;;;;;23.33;16.03;;;;;;;14.89;61.31;98860.03;6948857;28;20259;-80
2022/11/05 08:16:57;;;;;;;23.60;16.97;;;;;;;14.76;62.13;98892.78;6950041;28;20211;-80
2022/11/05 08:20:18;;;;;;;21.63;16.30;;;;;;;14.97;61.90;98901.25;6950515;28;20702;-80
2022/11/05 08:23:41;;;;;;;22.07;17.10;;;;;;;15.10;61.39;98884.75;6950009;28;20251;-80
2022/11/05 08:27:03;;;;;;;19.73;15.57;;;;;;;14.84;61.54;98897.88;6951506;28;20207;-80
2022/11/05 08:30:26;;;;;;;22.73;16.83;;;;;;;14.47;61.75;98853.72;6961477;28;20702;-81
2022/11/05 08:33:47;;;;;;;20.27;15.83;;;;;;;14.69;61.75;98892.84;6986683;28;20682;-81
2022/11/05 08:37:09;;;;;;;24.13;16.47;;;;;;;14.47;62.58;98909.84;6993440;28;20206;-83
2022/11/05 08:40:32;;;;;;;23.87;15.70;;;;;;;14.64;62.27;98919.03;6977342;28;20217;-81
2022/11/05 08:43:55;;;;;;;24.23;16.93;;;;;;;14.40;62.50;98912.63;6951112;28;20269;-80
2022/11/05 08:47:17;;;;;;;24.17;16.47;;;;;;;14.43;62.51;98920.34;6949842;28;20234;-79
2022/11/05 08:50:39;;;;;;;22.70;16.87;;;;;;;14.48;62.26;98922.34;6971168;28;20287;-81
2022/11/05 08:54:02;;;;;;;22.73;16.47;;;;;;;14.25;62.68;98925.75;6957928;28;20223;-81
2022/11/05 08:57:23;;;;;;;28.17;17.27;;;;;;;14.80;62.16;98938.22;6977525;28;20241;-80
2022/11/05 09:00:47;;;;;;;26.17;16.27;;;;;;;14.58;62.10;98937.03;6957977;28;20224;-81
2022/11/05 09:04:10;;;;;;;19.33;15.10;;;;;;;14.80;62.37;98940.94;6949411;28;20235;-81
2022/11/05 09:07:31;;;;;;;23.10;15.83;;;;;;;14.37;62.35;98952.94;6975914;28;20202;-80
2022/11/05 09:10:53;;;;;;;18.63;12.87;;;;;;;14.20;63.01;98955.44;6976216;28;20203;-82
2022/11/05 09:14:14;;;;;;;15.00;11.30;;;;;;;14.19;62.81;98956.50;6976268;28;20353;-81
2022/11/05 09:17:36;;;;;;;14.23;11.30;;;;;;;14.33;62.58;98962.63;6971426;28;20669;-81
2022/11/05 09:20:59;;;;;;;15.43;10.37;;;;;;;14.43;61.25;98936.63;6948827;28;20207;-80
2022/11/05 09:24:20;;;;;;;13.20;10.07;;;;;;;14.57;61.77;98962.53;6956067;28;20228;-81
2022/11/05 09:27:42;;;;;;;13.37;10.03;;;;;;;13.97;61.61;98976.06;6953942;28;20203;-81
2022/11/05 09:31:06;;;;;;;14.17;9.17;;;;;;;14.31;62.50;98954.69;6950025;28;20301;-81
2022/11/05 09:34:27;;;;;;;12.93;9.83;;;;;;;14.64;61.44;98962.47;6953913;28;20243;-81
2022/11/05 09:37:50;;;;;;;14.50;11.53;;;;;;;14.53;62.32;98976.78;6954217;28;20939;-81
2022/11/05 09:41:16;;;;;;;11.93;10.33;;;;;;;14.70;61.82;98980.53;6981115;28;20219;-81
2022/11/05 09:44:41;;;;;;;11.23;9.27;;;;;;;14.29;62.41;98994.75;6982604;28;20254;-79
2022/11/05 09:48:07;;;;;;;11.97;9.00;;;;;;;14.42;62.63;98967.50;6981990;28;20291;-82
2022/11/05 09:51:29;;;;;;;15.30;8.67;;;;;;;14.57;61.87;98978.81;6981543;28;20234;-79
2022/11/05 09:54:53;;;;;;;10.40;9.07;;;;;;;14.72;61.85;98967.56;6980796;28;20305;-80
2022/11/05 09:58:17;;;;;;;8.77;7.87;;;;;;;14.99;61.43;98982.47;6958057;28;20194;-80
2022/11/05 10:01:39;;;;;;;9.03;7.70;;;;;;;14.94;60.93;98979.63;6954773;28;20265;-82
2022/11/05 10:05:04;;;;;;;8.83;7.90;;;;;;;14.99;60.61;98990.63;6953990;28;20235;-79
2022/11/05 10:08:29;;;;;;;13.37;9.27;;;;;;;15.20;60.60;99006.41;6955002;28;20188;-82
2022/11/05 10:11:55;;;;;;;11.30;8.43;;;;;;;15.05;60.57;98995.94;6953979;28;20237;-79
2022/11/05 10:15:21;;;;;;;9.70;8.10;;;;;;;15.13;60.46;98998.38;6954282;28;20211;-79
2022/11/05 10:18:46;;;;;;;10.93;8.13;;;;;;;15.17;60.09;99002.25;6953574;28;20265;-78
2022/11/05 10:22:10;;;;;;;9.73;7.70;;;;;;;15.03;59.89;99016.25;6953874;28;20277;-79
2022/11/05 10:25:36;;;;;;;11.33;8.33;;;;;;;14.91;60.09;99023.50;6953712;28;20245;-83
2022/11/05 10:29:01;;;;;;;8.13;7.20;;;;;;;14.55;58.88;99005.34;6952646;28;20215;-82
2022/11/05 10:32:28;;;;;;;11.97;9.20;;;;;;;14.30;60.65;98987.47;6954032;28;20279;-82
2022/11/05 10:35:51;;;;;;;12.77;8.90;;;;;;;14.37;61.54;99020.75;6953643;28;20197;-82
2022/11/05 10:39:16;;;;;;;10.47;8.77;;;;;;;14.43;61.90;99044.28;6958639;28;20257;-81
2022/11/05 10:42:47;;;;;;;14.23;12.07;;;;;;;14.80;61.15;99030.53;6953194;28;20301;-82
2022/11/05 10:46:21;;;;;;;9.57;8.57;;;;;;;14.54;61.26;99048.97;6952028;28;20301;-82
2022/11/05 10:49:49;;;;;;;11.10;8.73;;;;;;;14.53;61.78;99050.88;6952343;28;20199;-82
2022/11/05 10:53:18;;;;;;;11.30;8.67;;;;;;;14.55;62.04;99045.19;6952649;28;20282;-82
2022/11/05 10:56:41;;;;;;;11.90;9.00;;;;;;;14.61;61.54;99034.28;6951004;28;20293;-80
2022/11/05 11:00:23;;;;;;;11.87;9.70;;;;;;;15.02;60.50;99045.31;6964224;28;20635;-80
2022/11/05 11:03:48;;;;;;;10.37;8.70;;;;;;;15.06;60.36;99048.38;6979633;28;20229;-80
2022/11/05 11:07:21;;;;;;;9.57;8.33;;;;;;;14.56;59.29;99003.44;6979448;28;20245;-80
2022/11/05 11:10:49;;;;;;;14.57;10.50;;;;;;;14.86;59.93;99040.47;6980045;28;20697;-80
2022/11/05 11:14:21;;;;;;;14.83;10.70;;;;;;;14.22;61.13;99028.44;6980081;28;20212;-80
2022/11/05 11:17:42;;;;;;;16.00;10.93;;;;;;;14.42;61.04;99010.06;6975473;28;20309;-80
2022/11/05 11:21:12;;;;;;;17.37;11.77;;;;;;;14.32;61.18;99048.56;6989311;28;20267;-80
2022/11/05 11:24:38;;;;;;;19.20;11.73;;;;;;;14.51;61.25;99050.25;6996031;28;20249;-80
2022/11/05 11:28:03;;;;;;;15.50;10.40;;;;;;;14.62;60.28;98997.16;6980075;28;20290;-80
2022/11/05 11:31:26;;;;;;;15.17;10.93;;;;;;;14.83;59.76;99054.50;6979824;28;20275;-80
2022/11/05 11:34:50;;;;;;;12.33;10.10;;;;;;;14.42;60.67;99067.03;6979648;28;20669;-80
2022/11/05 11:38:14;;;;;;;11.67;10.03;;;;;;;14.75;60.34;99064.84;6979331;28;20207;-80
2022/11/05 11:41:40;;;;;;;15.00;10.73;;;;;;;14.77;60.08;99060.84;6979864;28;20242;-80
2022/11/05 11:45:06;;;;;;;13.80;10.77;;;;;;;14.84;60.50;99063.47;6981568;28;20212;-80
2022/11/05 11:48:29;;;;;;;16.13;11.27;;;;;;;14.77;60.62;99060.00;6983100;28;20211;-79
2022/11/05 11:51:54;;;;;;;11.30;10.10;;;;;;;14.80;60.18;99041.38;6975743;28;20250;-80
2022/11/05 11:55:22;;;;;;;12.97;9.40;;;;;;;14.97;59.37;99042.44;6962563;28;20205;-80
2022/11/05 11:58:46;;;;;;;12.70;9.73;;;;;;;14.97;59.15;99038.88;6959327;28;20190;-80
2022/11/05 12:02:29;;;;;;;11.13;8.63;;;;;;;15.18;58.16;99030.28;6979363;28;20239;-80
2022/11/05 12:05:54;;;;;;;12.20;9.77;;;;;;;15.22;58.91;99070.31;6978451;28;20615;-80
2022/11/05 12:09:18;;;;;;;12.37;10.33;;;;;;;15.58;58.32;99056.69;6971934;28;20562;-80
2022/11/05 12:12:48;;;;;;;12.57;10.57;;;;;;;15.37;58.43;99059.94;6976442;28;20387;-81
2022/11/05 12:16:18;;;;;;;12.87;9.93;;;;;;;15.27;58.51;99047.91;6975465;28;20232;-81
2022/11/05 12:19:55;;;;;;;12.90;9.07;;;;;;;14.97;58.54;99055.16;6961212;28;20227;-79
2022/11/05 12:23:27;;;;;;;11.40;9.57;;;;;;;14.80;57.87;98997.13;6951408;28;20262;-79
2022/11/05 12:26:57;;;;;;;15.03;9.77;;;;;;;15.22;58.24;99048.59;6964749;28;20229;-78
2022/11/05 12:30:21;;;;;;;11.63;10.43;;;;;;;15.57;56.20;99046.88;6978956;28;20190;-79
2022/11/05 12:33:52;;;;;;;11.00;9.30;;;;;;;15.13;57.78;99046.41;6965341;28;20223;-79
2022/11/05 12:37:28;;;;;;;11.67;9.60;;;;;;;15.76;56.53;99045.75;6980023;28;20214;-79
2022/11/05 12:41:04;;;;;;;12.57;8.97;;;;;;;14.92;57.60;99046.91;6980624;28;20559;-79
2022/11/05 12:44:52;;;;;;;13.13;9.23;;;;;;;15.47;57.38;99033.03;6978553;28;20241;-79
2022/11/05 12:48:29;;;;;;;13.97;9.53;;;;;;;15.31;56.33;99022.78;6974938;28;20293;-79
2022/11/05 12:52:26;;;;;;;13.23;9.40;;;;;;;15.56;57.06;99056.09;6975086;28;20226;-79
2022/11/05 12:55:48;;;;;;;11.47;9.73;;;;;;;15.59;56.74;99054.81;6900258;28;20207;-79
2022/11/05 12:59:14;;;;;;;11.67;10.00;;;;;;;15.48;57.19;99036.56;6975111;28;20290;-79
2022/11/05 13:02:41;;;;;;;46.57;30.73;;;;;;;15.67;55.65;99043.59;6966890;28;20363;-79
2022/11/05 13:06:06;;;;;;;19.23;13.53;;;;;;;15.89;54.92;99050.16;6967227;28;20222;-80
2022/11/05 13:09:32;;;;;;;32.23;28.57;;;;;;;15.67;55.27;99055.31;6946685;28;20204;-79
2022/11/05 13:12:59;;;;;;;21.73;19.33;;;;;;;15.70;55.06;99043.97;6953084;28;20301;-80
2022/11/05 13:16:25;;;;;;;60.93;54.90;;;;;;;15.78;54.49;99043.66;6975089;28;20688;-79
2022/11/05 13:19:50;;;;;;;14.03;12.10;;;;;;;15.80;55.59;99040.72;6974218;28;20790;-79
2022/11/05 13:23:17;;;;;;;15.80;9.30;;;;;;;16.23;52.99;99054.84;6974769;28;20320;-79
2022/11/05 13:26:43;;;;;;;10.27;7.90;;;;;;;16.02;54.03;99060.84;6973809;28;20271;-79
2022/11/05 13:30:07;;;;;;;11.80;8.30;;;;;;;16.34;53.83;99059.47;6973341;28;20600;-79
2022/11/05 13:33:32;;;;;;;9.87;8.30;;;;;;;15.88;54.69;99062.97;6973842;28;20321;-79
2022/11/05 13:40:44;;;;;;;12.53;8.33;;;;;;;16.37;54.20;99059.00;6973065;28;20192;-79
2022/11/05 13:44:17;;;;;;;11.10;8.07;;;;;;;16.31;53.64;99057.22;6946861;28;20664;-78
2022/11/05 13:47:50;;;;;;;10.10;7.73;;;;;;;16.01;53.71;99059.19;6946156;28;20579;-80
2022/11/05 13:51:35;;;;;;;11.07;7.97;;;;;;;15.70;54.24;99060.28;6946941;28;20294;-79
2022/11/05 13:55:22;;;;;;;13.60;9.77;;;;;;;15.70;54.82;99056.75;6941174;28;20202;-79
2022/11/05 13:59:01;;;;;;;9.67;7.17;;;;;;;15.61;53.87;99044.53;6946433;28;20783;-79
2022/11/05 14:02:25;;;;;;;12.67;10.73;;;;;;;16.09;53.46;99056.13;6961282;28;20568;-79
2022/11/05 14:05:52;;;;;;;16.07;14.37;;;;;;;16.18;53.25;99061.00;6974582;28;20268;-79
2022/11/05 14:09:19;;;;;;;14.13;11.63;;;;;;;16.26;53.24;99043.47;6973742;28;20208;-79
2022/11/05 14:12:46;;;;;;;9.17;6.73;;;;;;;15.44;52.91;99065.25;6974215;28;20265;-79
2022/11/05 14:16:15;;;;;;;8.27;6.27;;;;;;;15.28;53.17;99052.28;6974089;28;20186;-79
2022/11/05 14:19:50;;;;;;;8.50;6.90;;;;;;;15.69;53.32;99057.81;6975352;28;20255;-79
2022/11/05 14:23:37;;;;;;;9.37;6.83;;;;;;;15.50;53.64;99073.31;6977977;28;20230;-79
2022/11/05 14:27:52;;;;;;;9.07;6.87;;;;;;;15.79;54.20;99075.22;6982227;28;20673;-79
2022/11/05 14:31:42;;;;;;;9.77;6.77;;;;;;;15.51;54.08;99074.97;6968274;28;20317;-79
2022/11/05 14:35:34;;;;;;;8.17;6.73;;;;;;;15.27;54.08;99073.19;6978664;28;20210;-78
2022/11/05 14:39:01;;;;;;;9.97;7.07;;;;;;;15.26;54.32;99079.69;6958184;28;20237;-79
2022/11/05 14:42:25;;;;;;;10.00;7.47;;;;;;;15.66;53.43;99063.69;6978995;28;20704;-79
2022/11/05 14:45:54;;;;;;;9.13;7.50;;;;;;;15.66;53.82;99080.00;6972262;28;20230;-79
2022/11/05 14:49:19;;;;;;;8.97;7.13;;;;;;;15.74;53.31;99090.56;6977532;28;20206;-79
2022/11/05 14:52:50;;;;;;;8.90;7.30;;;;;;;15.58;53.93;99083.88;6968330;28;20335;-79
2022/11/05 14:56:13;;;;;;;9.87;6.90;;;;;;;15.47;53.29;99086.53;6966372;28;20269;-79
2022/11/05 14:59:52;;;;;;;13.47;7.60;;;;;;;15.48;53.37;99088.19;6977887;28;20675;-79
2022/11/05 15:04:10;;;;;;;9.80;6.53;;;;;;;15.28;52.73;99099.28;6978343;28;20885;-79
2022/11/05 15:07:37;;;;;;;10.07;7.60;;;;;;;15.54;52.33;99090.84;6968272;28;20324;-79
2022/11/05 15:11:07;;;;;;;12.23;7.90;;;;;;;15.61;52.49;99107.03;6978628;28;20276;-79
2022/11/05 15:14:32;;;;;;;7.07;6.13;;;;;;;14.92;53.01;99101.19;6978128;28;20192;-79
2022/11/05 15:18:01;;;;;;;7.70;6.63;;;;;;;15.41;52.61;99091.03;6978545;28;20222;-79
2022/11/05 15:21:22;;;;;;;10.00;7.03;;;;;;;15.26;52.92;99095.13;6978191;28;20984;-79
2022/11/05 15:24:45;;;;;;;8.77;6.57;;;;;;;15.52;52.89;99105.72;6978466;28;20343;-79
2022/11/05 15:28:12;;;;;;;9.10;7.47;;;;;;;15.51;52.58;99104.88;6970292;28;20735;-80
2022/11/05 15:31:36;;;;;;;9.07;7.40;;;;;;;15.39;52.98;99114.84;6977332;28;20287;-79
2022/11/05 15:34:57;;;;;;;21.60;13.70;;;;;;;15.54;53.00;99109.88;6972275;28;20230;-80
2022/11/05 15:38:27;;;;;;;15.33;9.27;;;;;;;15.61;52.75;99116.03;6977171;28;20368;-80
2022/11/05 15:41:50;;;;;;;14.33;7.90;;;;;;;15.37;53.46;99108.84;6977800;28;20305;-79
2022/11/05 15:45:19;;;;;;;10.43;6.87;;;;;;;15.14;53.92;99111.38;6961495;28;20323;-80
2022/11/05 15:48:40;;;;;;;10.00;7.53;;;;;;;15.39;53.50;99106.69;6977105;28;20258;-80
2022/11/05 15:52:03;;;;;;;8.50;7.10;;;;;;;15.30;53.47;99072.75;6976876;28;20241;-80
2022/11/05 15:55:25;;;;;;;14.07;8.23;;;;;;;15.20;54.10;99096.88;6976675;28;20212;-80
2022/11/05 15:58:52;;;;;;;11.27;7.97;;;;;;;15.28;53.87;99112.06;6976118;28;20239;-80
2022/11/05 16:02:24;;;;;;;11.33;7.30;;;;;;;15.34;54.02;99106.56;6976890;28;20307;-80
2022/11/05 16:05:47;;;;;;;8.67;6.53;;;;;;;15.43;53.89;99112.50;6975899;28;20636;-80
2022/11/05 16:09:20;;;;;;;12.07;9.00;;;;;;;15.19;54.04;99095.22;6974780;28;20682;-81
2022/11/05 16:12:41;;;;;;;13.70;9.67;;;;;;;15.19;53.99;99094.41;6974995;28;20365;-81
2022/11/05 16:16:06;;;;;;;13.13;10.03;;;;;;;15.22;54.44;99121.13;6973512;28;20292;-81
2022/11/05 16:19:35;;;;;;;14.63;9.10;;;;;;;15.38;54.24;99123.22;6972799;28;20682;-80
2022/11/05 16:22:58;;;;;;;13.73;8.30;;;;;;;15.49;54.39;99126.03;6973874;28;20236;-81
2022/11/05 16:26:32;;;;;;;10.00;8.20;;;;;;;15.36;54.03;99133.50;6971938;28;20315;-80
2022/11/05 16:29:55;;;;;;;14.30;8.63;;;;;;;15.33;54.67;99129.34;6973072;28;20188;-80
2022/11/05 16:33:18;;;;;;;12.13;8.20;;;;;;;15.52;54.16;99125.56;6973090;28;20309;-80
2022/11/05 16:36:39;;;;;;;10.93;7.07;;;;;;;14.38;56.23;99120.06;6973351;28;20656;-81
2022/11/05 16:40:02;;;;;;;11.17;7.73;;;;;;;14.80;56.68;99149.97;6967131;28;20289;-80
2022/11/05 16:43:25;;;;;;;15.57;10.93;;;;;;;14.71;57.03;99137.75;6965431;28;20310;-81
2022/11/05 16:46:47;;;;;;;13.97;9.97;;;;;;;14.84;57.37;99161.19;6962506;28;20223;-82